Terminal Aerodrome Forecast
Issued by NWS

Home | Current Version | Previous Version | Text Only | Print | Product List | Glossary On
Versions: 1 2 3 4 5 6 7 8 9 10 11 12 13 14 15 16 17
591
FTUS42 KMLB 091745 AAA
TAFSUA
TAF AMD
KSUA 091745Z 0918/1018 35012G19KT P6SM SCT008 BKN025 OVC120
      TEMPO 0918/0920 -RA BKN008
     FM100000 02012KT P6SM FEW030 SCT120 BKN150
     FM100600 03011KT P6SM VCSH BKN040 BKN150
     FM101400 05014G22KT P6SM VCSH BKN040=

USA.gov is the U.S. government's official web portal to all federal, state and local government web resources and services.